createdAt,value
2023-02-18T00:01:48.304Z,101383.47
2023-02-18T00:05:51.389Z,101387.25
2023-02-18T00:09:55.720Z,101382.00
2023-02-18T00:14:00.354Z,101389.78
2023-02-18T00:18:03.396Z,101382.00
2023-02-18T00:22:06.431Z,101365.56
2023-02-18T00:26:13.493Z,101373.78
2023-02-18T00:30:17.366Z,101366.59
2023-02-18T00:34:20.446Z,101356.03
2023-02-18T00:38:23.588Z,101354.34
2023-02-18T00:42:28.072Z,101343.56
2023-02-18T00:46:31.446Z,101340.66
2023-02-18T00:50:37.093Z,101338.28
2023-02-18T00:54:40.082Z,101331.56
2023-02-18T00:58:44.541Z,101330.72
2023-02-18T01:02:47.630Z,101334.13
2023-02-18T01:06:50.624Z,101333.47
2023-02-18T01:10:55.406Z,101310.91
2023-02-18T01:14:59.865Z,101329.81
2023-02-18T01:19:02.846Z,101316.53
2023-02-18T01:23:06.433Z,101326.16
2023-02-18T01:27:09.477Z,101325.25
2023-02-18T01:31:15.017Z,101324.50
2023-02-18T01:35:20.652Z,101324.47
2023-02-18T01:39:23.767Z,101325.25
2023-02-18T01:43:26.944Z,101331.97
2023-02-18T01:47:31.304Z,101320.75
2023-02-18T01:51:38.305Z,101316.50
2023-02-18T01:55:41.421Z,101317.53
2023-02-18T01:59:49.137Z,101301.72
2023-02-18T02:03:53.508Z,101310.75
2023-02-18T02:07:56.995Z,101304.63
2023-02-18T02:12:23.326Z,101298.09
2023-02-18T02:16:33.098Z,101287.81
2023-02-18T02:21:12.833Z,101266.97
2023-02-18T02:25:40.365Z,101263.19
2023-02-18T02:30:26.182Z,101247.41
2023-02-18T02:34:40.563Z,101241.38
2023-02-18T02:38:56.179Z,101219.66
2023-02-18T02:43:07.492Z,101227.88
2023-02-18T02:47:15.584Z,101221.63
2023-02-18T02:51:25.115Z,101217.84
2023-02-18T02:55:28.180Z,101205.66
2023-02-18T02:59:34.457Z,101204.41
2023-02-18T03:04:05.213Z,101204.66
2023-02-18T03:08:30.681Z,101195.41
2023-02-18T03:12:43.051Z,101207.84
2023-02-18T03:16:51.498Z,101190.38
2023-02-18T03:20:59.006Z,101184.88
2023-02-18T03:25:05.255Z,101184.44
2023-02-18T03:29:11.765Z,101174.34
2023-02-18T03:33:18.964Z,101162.16
2023-02-18T03:37:22.464Z,101157.31
2023-02-18T03:41:28.429Z,101144.69
2023-02-18T03:45:31.563Z,101143.63
2023-02-18T03:49:34.592Z,101142.19
2023-02-18T03:53:37.657Z,101144.28
2023-02-18T03:57:42.312Z,101143.00
2023-02-18T04:01:45.356Z,101111.72
2023-02-18T04:05:48.367Z,101117.56
2023-02-18T04:09:51.367Z,101130.13
2023-02-18T04:13:55.699Z,101113.47
2023-02-18T04:17:58.724Z,101116.59
2023-02-18T04:22:01.723Z,101118.69
2023-02-18T04:26:05.288Z,101117.59
2023-02-18T04:30:10.538Z,101111.72
2023-02-18T04:34:13.573Z,101098.03
2023-02-18T04:38:16.606Z,101110.22
2023-02-18T04:42:19.714Z,101122.19
2023-02-18T04:46:24.140Z,101118.63
2023-02-18T04:50:27.173Z,101099.88
2023-02-18T04:54:30.315Z,101106.00
2023-02-18T04:58:33.333Z,101108.91
2023-02-18T05:02:37.755Z,101106.38
2023-02-18T05:06:43.121Z,101105.56
2023-02-18T05:10:46.208Z,101100.47
2023-02-18T05:14:49.249Z,101105.97
2023-02-18T05:18:53.673Z,101106.13
2023-02-18T05:22:56.761Z,101093.31
2023-02-18T05:26:59.784Z,101092.06
2023-02-18T05:31:03.045Z,101079.66
2023-02-18T05:35:08.813Z,101071.44
2023-02-18T05:39:11.935Z,101054.56
2023-02-18T05:43:15.268Z,101054.38
2023-02-18T05:47:18.335Z,101044.09
2023-02-18T05:51:22.718Z,101037.34
2023-02-18T05:55:25.732Z,101039.09
2023-02-18T05:59:28.763Z,101019.28
2023-02-18T06:03:31.751Z,101007.13
2023-02-18T06:07:36.323Z,100990.31
2023-02-18T06:11:39.360Z,100994.34
2023-02-18T06:15:42.384Z,100996.44
2023-02-18T06:19:45.567Z,100986.00
2023-02-18T06:23:50.152Z,100994.44
2023-02-18T06:27:53.200Z,100985.59
2023-02-18T06:31:56.323Z,101006.50
2023-02-18T06:36:00.831Z,100981.63
2023-02-18T06:40:06.232Z,100989.66
2023-02-18T06:44:09.651Z,100979.13
2023-02-18T06:48:13.452Z,100966.09
2023-02-18T06:52:16.458Z,100959.75
2023-02-18T06:56:20.851Z,100961.44
2023-02-18T07:00:24.099Z,100971.50
2023-02-18T07:04:27.129Z,100999.19
2023-02-18T07:08:30.936Z,101003.13
2023-02-18T07:12:35.453Z,101018.03
2023-02-18T07:16:38.664Z,101000.59
2023-02-18T07:20:41.765Z,100996.75
2023-02-18T07:24:44.844Z,101017.97
2023-02-18T07:28:49.319Z,100992.06
2023-02-18T07:32:52.387Z,100983.06
2023-02-18T07:36:55.548Z,101027.72
2023-02-18T07:40:59.279Z,100995.06
2023-02-18T07:45:04.198Z,101031.88
2023-02-18T07:49:07.502Z,101014.06
2023-02-18T07:53:11.752Z,101037.50
2023-02-18T07:57:14.867Z,101042.91
2023-02-18T08:01:19.594Z,101035.28
2023-02-18T08:05:22.933Z,101017.13
2023-02-18T08:09:26.028Z,101042.78
2023-02-18T08:13:29.597Z,101031.59
2023-02-18T08:17:34.225Z,101067.50
2023-02-18T08:21:37.305Z,101051.19
2023-02-18T08:25:40.518Z,101041.56
2023-02-18T08:29:43.869Z,101041.00
2023-02-18T08:33:49.214Z,101028.06
2023-02-18T08:37:53.916Z,101018.44
2023-02-18T08:41:58.715Z,101011.59
2023-02-18T08:46:01.961Z,101010.88
2023-02-18T08:50:07.276Z,101010.03
2023-02-18T08:54:10.384Z,101006.72
2023-02-18T08:58:14.020Z,101003.34
2023-02-18T09:02:17.196Z,100994.50
2023-02-18T09:06:22.100Z,100978.75
2023-02-18T09:10:26.179Z,100983.25
2023-02-18T09:14:29.705Z,100968.56
2023-02-18T09:18:35.513Z,100978.72
2023-02-18T09:22:40.558Z,100974.94
2023-02-18T09:26:43.739Z,100971.41
2023-02-18T09:30:47.255Z,100981.91
2023-02-18T09:34:50.463Z,100975.03
2023-02-18T09:38:55.700Z,100956.56
2023-02-18T09:43:00.181Z,100948.56
2023-02-18T09:47:06.583Z,100952.75
2023-02-18T09:51:15.357Z,100957.13
2023-02-18T09:55:23.115Z,100964.47
2023-02-18T09:59:27.699Z,101001.13
2023-02-18T10:03:31.152Z,100978.16
2023-02-18T10:07:37.035Z,100982.13
2023-02-18T10:11:44.449Z,101001.44
2023-02-18T10:15:49.290Z,100954.94
2023-02-18T10:19:54.536Z,100970.31
2023-02-18T10:24:02.410Z,100993.06
2023-02-18T10:28:07.086Z,100987.72
2023-02-18T10:32:21.013Z,101003.44
2023-02-18T10:36:28.172Z,101054.75
2023-02-18T10:40:42.373Z,101068.28
2023-02-18T10:45:03.161Z,101078.53
2023-02-18T10:49:29.291Z,101078.06
2023-02-18T10:53:36.212Z,101083.19
2023-02-18T10:57:49.798Z,101084.63
2023-02-18T11:01:59.283Z,101109.75
2023-02-18T11:06:02.472Z,101094.03
2023-02-18T11:10:16.161Z,101084.34
2023-02-18T11:14:38.849Z,101104.69
2023-02-18T11:18:45.531Z,101096.22
2023-02-18T11:22:49.964Z,101098.38
2023-02-18T11:26:53.191Z,101095.94
2023-02-18T11:31:00.180Z,101086.22
2023-02-18T11:35:05.995Z,101108.94
2023-02-18T11:39:21.498Z,101054.47
2023-02-18T11:43:30.614Z,101120.31
2023-02-18T11:47:36.160Z,101103.34
2023-02-18T11:51:41.816Z,101086.38
2023-02-18T11:55:55.516Z,101111.22
2023-02-18T12:00:00.306Z,101095.03
2023-02-18T12:04:10.200Z,101096.25
2023-02-18T12:08:20.482Z,101089.09
2023-02-18T12:12:28.772Z,101109.91
2023-02-18T12:16:40.726Z,101099.84
2023-02-18T12:21:12.810Z,101097.84
2023-02-18T12:25:30.935Z,101096.91
2023-02-18T12:29:50.779Z,101089.38
2023-02-18T12:34:12.816Z,101087.28
2023-02-18T12:38:34.195Z,101082.88
2023-02-18T12:42:53.226Z,101078.69
2023-02-18T12:47:21.807Z,101084.81
2023-02-18T12:51:36.459Z,101102.91
2023-02-18T12:55:54.277Z,101086.72
2023-02-18T13:00:45.333Z,101090.94
2023-02-18T13:04:57.569Z,101085.69
2023-02-18T13:09:09.861Z,101096.22
2023-02-18T13:13:17.516Z,101077.31
2023-02-18T13:17:23.292Z,101092.50
2023-02-18T13:21:27.537Z,101089.38
2023-02-18T13:25:34.412Z,101098.25
2023-02-18T13:29:42.924Z,101094.25
2023-02-18T13:33:56.148Z,101091.34
2023-02-18T13:38:14.659Z,101088.00
2023-02-18T13:42:28.415Z,101090.75
2023-02-18T13:46:34.381Z,101085.75
2023-02-18T13:50:44.447Z,101088.13
2023-02-18T13:54:51.867Z,101086.03
2023-02-18T13:59:00.732Z,101083.94
2023-02-18T14:03:22.851Z,101078.09
2023-02-18T14:07:47.996Z,101092.81
2023-02-18T14:11:58.112Z,101069.88
2023-02-18T14:16:02.470Z,101069.66
2023-02-18T14:20:29.445Z,101086.56
2023-02-18T14:24:49.367Z,101075.63
2023-02-18T14:28:57.457Z,101089.06
2023-02-18T14:33:03.008Z,101084.47
2023-02-18T14:37:23.051Z,101081.91
2023-02-18T14:41:46.608Z,101061.72
2023-02-18T14:46:15.410Z,101078.34
2023-02-18T14:50:21.052Z,101066.38
2023-02-18T14:54:26.924Z,101065.31
2023-02-18T14:58:37.056Z,101068.06
2023-02-18T15:02:40.270Z,101075.78
2023-02-18T15:06:44.058Z,101066.38
2023-02-18T15:10:51.674Z,101075.22
2023-02-18T15:15:03.799Z,101083.22
2023-02-18T15:19:11.486Z,101076.50
2023-02-18T15:23:18.267Z,101069.13
2023-02-18T15:27:23.692Z,101079.88
2023-02-18T15:31:31.605Z,101091.28
2023-02-18T15:35:34.949Z,101077.59
2023-02-18T15:39:39.608Z,101083.50
2023-02-18T15:43:54.463Z,101076.59
2023-02-18T15:48:00.610Z,101072.41
2023-02-18T15:52:05.208Z,101079.19
2023-02-18T15:56:16.380Z,101073.97
2023-02-18T16:00:29.632Z,101066.00
2023-02-18T16:04:38.414Z,101056.56
2023-02-18T16:08:42.625Z,101058.91
2023-02-18T16:12:50.500Z,101056.16
2023-02-18T16:17:18.931Z,101061.63
2023-02-18T16:21:33.144Z,101056.16
2023-02-18T16:25:43.130Z,101047.09
2023-02-18T16:29:46.629Z,101060.78
2023-02-18T16:33:50.439Z,101062.47
2023-02-18T16:37:57.934Z,101052.38
2023-02-18T16:42:01.349Z,101052.56
2023-02-18T16:46:09.268Z,101050.22
2023-02-18T16:50:18.651Z,101062.44
2023-02-18T16:54:23.377Z,101050.38
2023-02-18T16:58:26.675Z,101071.22
2023-02-18T17:02:32.216Z,101059.84
2023-02-18T17:06:35.772Z,101067.84
2023-02-18T17:10:40.724Z,101065.97
2023-02-18T17:14:44.005Z,101074.38
2023-02-18T17:18:47.920Z,101067.34
2023-02-18T17:22:51.571Z,101080.78
2023-02-18T17:26:57.119Z,101073.16
2023-02-18T17:31:00.436Z,101073.56
2023-02-18T17:35:04.146Z,101071.88
2023-02-18T17:39:08.011Z,101071.03
2023-02-18T17:43:14.752Z,101076.03
2023-02-18T17:47:17.935Z,101076.91
2023-02-18T17:51:25.514Z,101085.13
2023-02-18T17:55:31.652Z,101090.59
2023-02-18T17:59:36.389Z,101089.53
2023-02-18T18:03:40.068Z,101085.28
2023-02-18T18:07:43.464Z,101093.09
2023-02-18T18:11:46.818Z,101094.16
2023-02-18T18:15:52.275Z,101092.47
2023-02-18T18:19:55.896Z,101081.34
2023-02-18T18:23:59.822Z,101077.31
2023-02-18T18:28:03.126Z,101085.13
2023-02-18T18:32:08.095Z,101078.59
2023-02-18T18:36:11.488Z,101070.00
2023-02-18T18:40:15.329Z,101076.50
2023-02-18T18:44:18.747Z,101075.69
2023-02-18T18:48:24.298Z,101070.22
2023-02-18T18:52:27.504Z,101071.13
2023-02-18T18:56:30.848Z,101073.84
2023-02-18T19:00:37.033Z,101082.06
2023-02-18T19:04:42.074Z,101073.69
2023-02-18T19:08:47.970Z,101075.16
2023-02-18T19:12:52.580Z,101052.88
2023-02-18T19:16:56.280Z,101066.16
2023-02-18T19:21:03.540Z,101064.28
2023-02-18T19:25:07.954Z,101071.63
2023-02-18T19:29:11.298Z,101058.09
2023-02-18T19:33:16.154Z,101059.53
2023-02-18T19:37:23.085Z,101077.38
2023-02-18T19:41:26.765Z,101057.59
2023-02-18T19:45:30.147Z,101057.59
2023-02-18T19:49:33.736Z,101061.19
2023-02-18T19:53:38.560Z,101074.00
2023-02-18T19:57:41.921Z,101056.31
2023-02-18T20:01:45.159Z,101065.56
2023-02-18T20:05:48.910Z,101048.13
2023-02-18T20:09:54.654Z,101056.72
2023-02-18T20:13:57.951Z,101044.09
2023-02-18T20:18:01.307Z,101033.53
2023-02-18T20:22:09.572Z,101032.50
2023-02-18T20:26:15.275Z,101024.28
2023-02-18T20:30:18.654Z,101017.13
2023-02-18T20:34:24.049Z,101024.28
2023-02-18T20:38:27.317Z,101028.47
2023-02-18T20:42:33.347Z,101038.38
2023-02-18T20:46:38.077Z,101036.94
2023-02-18T20:50:41.494Z,101024.28
2023-02-18T20:54:45.816Z,101018.03
2023-02-18T20:58:51.445Z,101017.59
2023-02-18T21:02:54.878Z,101002.88
2023-02-18T21:06:58.322Z,100998.22
2023-02-18T21:11:04.035Z,100982.88
2023-02-18T21:15:10.426Z,100982.00
2023-02-18T21:19:16.901Z,100985.59
2023-02-18T21:23:20.197Z,100990.03
2023-02-18T21:27:23.737Z,100998.88
2023-02-18T21:31:30.649Z,101004.13
2023-02-18T21:35:37.027Z,101008.75
2023-02-18T21:39:40.433Z,101000.34
2023-02-18T21:43:45.862Z,101001.41
2023-02-18T21:47:50.616Z,100995.28
2023-02-18T21:52:02.281Z,101000.09
2023-02-18T21:56:11.478Z,100995.25
2023-02-18T22:00:21.034Z,100999.03
2023-02-18T22:04:26.613Z,101000.06
2023-02-18T22:08:29.868Z,100997.97
2023-02-18T22:12:34.074Z,100988.09
2023-02-18T22:16:37.341Z,100990.81
2023-02-18T22:20:42.204Z,100965.56
2023-02-18T22:24:45.605Z,100956.06
2023-02-18T22:28:54.726Z,100947.84
2023-02-18T22:32:58.380Z,100936.47
2023-02-18T22:37:03.317Z,100928.63
2023-02-18T22:41:10.339Z,100920.28
2023-02-18T22:45:13.801Z,100921.97
2023-02-18T22:49:18.956Z,100964.66
2023-02-18T22:53:23.528Z,100965.31
2023-02-18T22:57:26.738Z,100956.91
2023-02-18T23:01:32.808Z,100958.81
2023-02-18T23:05:36.678Z,100967.66
2023-02-18T23:09:41.317Z,100968.28
2023-02-18T23:13:45.586Z,100974.41
2023-02-18T23:17:50.455Z,100974.59
2023-02-18T23:21:54.009Z,100972.31
2023-02-18T23:26:03.661Z,100954.41
2023-02-18T23:30:07.462Z,100960.75
2023-02-18T23:34:15.066Z,100949.41
2023-02-18T23:38:18.485Z,100958.25
2023-02-18T23:42:23.024Z,100948.75
2023-02-18T23:46:28.406Z,100934.03
2023-02-18T23:50:31.587Z,100931.28
2023-02-18T23:54:34.884Z,100926.63
2023-02-18T23:58:43.831Z,100932.75
